Time;durP1;ratioP1;P1;durP2;ratioP2;P2;SDS_P1;SDS_P2;PMS_P1;PMS_P2;Temp;Humidity;BMP_temperature;BMP_pressure;BME280_temperature;BME280_humidity;BME280_pressure;Samples;Min_cycle;Max_cycle;Signal;HPM_P1;HPM_P2
2020/12/26 00:01:13;;;;;;;3.45;2.22;;;;;;;;;;5073297;28;20190;-48
2020/12/26 00:03:39;;;;;;;2.88;2.10;;;;;;;;;;5055489;28;20191;-49
2020/12/26 00:06:05;;;;;;;2.10;1.90;;;;;;;;;;5053462;28;20610;-49
2020/12/26 00:08:32;;;;;;;2.90;1.98;;;;;;;;;;5054643;28;20260;-49
2020/12/26 00:10:59;;;;;;;3.63;1.98;;;;;;;;;;5065587;28;20179;-49
2020/12/26 00:13:24;;;;;;;2.67;2.13;;;;;;;;;;5053333;28;20558;-49
2020/12/26 00:15:50;;;;;;;2.67;1.90;;;;;;;;;;5070887;28;20186;-49
2020/12/26 00:18:16;;;;;;;2.92;1.90;;;;;;;;;;5077807;28;20553;-49
2020/12/26 00:20:42;;;;;;;2.45;1.88;;;;;;;;;;5077701;28;20249;-49
2020/12/26 00:23:08;;;;;;;2.15;1.80;;;;;;;;;;5076225;28;20174;-49
2020/12/26 00:25:34;;;;;;;3.20;2.10;;;;;;;;;;5076250;28;20178;-49
2020/12/26 00:28:00;;;;;;;2.47;1.90;;;;;;;;;;5077650;28;20190;-49
2020/12/26 00:30:26;;;;;;;3.47;1.80;;;;;;;;;;5077061;28;20546;-49
2020/12/26 00:32:52;;;;;;;4.07;1.92;;;;;;;;;;5077516;28;20186;-48
2020/12/26 00:35:18;;;;;;;2.75;1.98;;;;;;;;;;5077066;28;20232;-48
2020/12/26 00:37:44;;;;;;;1.77;1.65;;;;;;;;;;5076922;28;20242;-49
2020/12/26 00:40:10;;;;;;;2.13;1.90;;;;;;;;;;5075819;28;20191;-49
2020/12/26 00:42:36;;;;;;;2.15;1.92;;;;;;;;;;5065415;28;20191;-48
2020/12/26 00:45:03;;;;;;;2.35;1.70;;;;;;;;;;5064312;28;20485;-49
2020/12/26 00:47:29;;;;;;;2.45;1.70;;;;;;;;;;5076668;28;20220;-49
2020/12/26 00:49:55;;;;;;;2.13;1.63;;;;;;;;;;5077246;28;20249;-49
2020/12/26 00:52:20;;;;;;;1.70;1.42;;;;;;;;;;5077302;28;20243;-49
2020/12/26 00:54:46;;;;;;;4.65;1.67;;;;;;;;;;5072860;28;20182;-49
2020/12/26 00:57:12;;;;;;;1.65;1.42;;;;;;;;;;5057890;28;20463;-49
2020/12/26 00:59:39;;;;;;;1.77;1.67;;;;;;;;;;5069788;28;20197;-49
2020/12/26 01:02:05;;;;;;;1.98;1.77;;;;;;;;;;5076662;28;20220;-49
2020/12/26 01:04:30;;;;;;;2.45;1.80;;;;;;;;;;5068956;28;20191;-49
2020/12/26 01:06:57;;;;;;;2.45;1.60;;;;;;;;;;5063261;28;20247;-49
2020/12/26 01:09:23;;;;;;;2.58;1.63;;;;;;;;;;5076537;28;20182;-49
2020/12/26 01:11:49;;;;;;;2.40;1.63;;;;;;;;;;5076769;28;20199;-49
2020/12/26 01:14:15;;;;;;;1.88;1.42;;;;;;;;;;5074433;28;20186;-49
2020/12/26 01:16:41;;;;;;;2.28;1.70;;;;;;;;;;5070291;28;20451;-48
2020/12/26 01:19:07;;;;;;;1.67;1.25;;;;;;;;;;5076779;28;20179;-49
2020/12/26 01:21:33;;;;;;;1.75;1.48;;;;;;;;;;5074779;28;20178;-49
2020/12/26 01:23:59;;;;;;;1.75;1.45;;;;;;;;;;5056249;28;20175;-49
2020/12/26 01:26:25;;;;;;;2.25;1.65;;;;;;;;;;5055193;28;20640;-49
2020/12/26 01:28:51;;;;;;;1.88;1.48;;;;;;;;;;5057677;28;20199;-49
2020/12/26 01:31:18;;;;;;;1.40;1.30;;;;;;;;;;5056705;28;20267;-49
2020/12/26 01:33:43;;;;;;;1.80;1.50;;;;;;;;;;5071557;28;20178;-49
2020/12/26 01:36:13;;;;;;;2.75;1.42;;;;;;;;;;5061439;28;20198;-49
2020/12/26 01:38:39;;;;;;;2.22;1.63;;;;;;;;;;5056019;28;20193;-49
2020/12/26 01:41:06;;;;;;;1.83;1.27;;;;;;;;;;5056285;28;20209;-48
2020/12/26 01:43:32;;;;;;;1.35;1.25;;;;;;;;;;5056002;28;20183;-49
2020/12/26 01:45:58;;;;;;;2.17;1.55;;;;;;;;;;5056976;28;20187;-49
2020/12/26 01:48:25;;;;;;;1.60;1.50;;;;;;;;;;5059598;28;20228;-49
2020/12/26 01:50:53;;;;;;;1.35;1.25;;;;;;;;;;5076021;28;20232;-49
2020/12/26 01:53:19;;;;;;;1.63;1.38;;;;;;;;;;5076032;28;20167;-49
2020/12/26 01:55:45;;;;;;;2.28;1.50;;;;;;;;;;5074943;28;20473;-49
2020/12/26 01:58:12;;;;;;;1.85;1.33;;;;;;;;;;5076159;28;20175;-49
2020/12/26 02:00:39;;;;;;;1.55;1.45;;;;;;;;;;5074971;28;20190;-49
2020/12/26 02:03:05;;;;;;;2.58;1.25;;;;;;;;;;5059136;28;20244;-49
2020/12/26 02:05:31;;;;;;;1.05;1.05;;;;;;;;;;5074798;28;20264;-49
2020/12/26 02:07:57;;;;;;;1.33;1.20;;;;;;;;;;5073381;28;20220;-49
2020/12/26 02:10:23;;;;;;;1.40;1.30;;;;;;;;;;5061292;28;20190;-49
2020/12/26 02:12:49;;;;;;;1.67;1.58;;;;;;;;;;5056344;28;20187;-49
2020/12/26 02:15:15;;;;;;;1.40;1.23;;;;;;;;;;5074514;28;20175;-49
2020/12/26 02:17:41;;;;;;;1.52;1.20;;;;;;;;;;5072585;28;20269;-48
2020/12/26 02:20:08;;;;;;;1.35;1.15;;;;;;;;;;5070234;28;20194;-49
2020/12/26 02:22:34;;;;;;;1.45;1.30;;;;;;;;;;5071646;28;20214;-49
2020/12/26 02:25:00;;;;;;;2.42;1.30;;;;;;;;;;5074842;28;20178;-49
2020/12/26 02:27:26;;;;;;;1.05;0.98;;;;;;;;;;5071184;28;20206;-49
2020/12/26 02:29:52;;;;;;;1.58;1.17;;;;;;;;;;5055472;28;20179;-49
2020/12/26 02:32:18;;;;;;;1.40;1.10;;;;;;;;;;5058299;28;20185;-49
2020/12/26 02:34:44;;;;;;;1.25;1.10;;;;;;;;;;5054724;28;20630;-49
2020/12/26 02:37:10;;;;;;;1.33;1.10;;;;;;;;;;5054294;28;20190;-49
2020/12/26 02:39:36;;;;;;;0.90;0.90;;;;;;;;;;5055043;28;20217;-49
2020/12/26 02:42:02;;;;;;;1.20;1.02;;;;;;;;;;5055341;28;20182;-48
2020/12/26 02:44:28;;;;;;;1.50;1.13;;;;;;;;;;5054238;28;20217;-49
2020/12/26 02:46:54;;;;;;;1.35;1.25;;;;;;;;;;5056210;28;20234;-49
2020/12/26 02:49:20;;;;;;;1.48;1.08;;;;;;;;;;5056409;28;20194;-49
2020/12/26 02:51:46;;;;;;;1.20;1.10;;;;;;;;;;5054959;28;20179;-49
2020/12/26 02:54:12;;;;;;;2.20;1.10;;;;;;;;;;5054964;28;20217;-49
2020/12/26 02:56:39;;;;;;;1.10;1.00;;;;;;;;;;5054852;28;20171;-49
2020/12/26 02:59:08;;;;;;;1.45;1.10;;;;;;;;;;5057523;28;20245;-49
2020/12/26 03:01:34;;;;;;;0.95;0.95;;;;;;;;;;5068842;28;20257;-49
2020/12/26 03:04:01;;;;;;;1.02;0.93;;;;;;;;;;5054831;28;20605;-49
2020/12/26 03:06:27;;;;;;;1.52;1.25;;;;;;;;;;5053876;28;20207;-49
2020/12/26 03:08:53;;;;;;;2.38;1.00;;;;;;;;;;5055096;28;20222;-49
2020/12/26 03:11:21;;;;;;;1.10;1.00;;;;;;;;;;5057313;28;20178;-49
2020/12/26 03:13:47;;;;;;;1.40;0.95;;;;;;;;;;5063688;28;20211;-49
2020/12/26 03:16:13;;;;;;;1.08;0.88;;;;;;;;;;5054055;28;20190;-49
2020/12/26 03:18:39;;;;;;;1.23;1.13;;;;;;;;;;5053278;28;20266;-49
2020/12/26 03:21:05;;;;;;;1.10;1.00;;;;;;;;;;5054299;28;20178;-49
2020/12/26 03:23:31;;;;;;;1.40;1.10;;;;;;;;;;5073296;28;20187;-49
2020/12/26 03:25:57;;;;;;;0.80;0.80;;;;;;;;;;5073477;28;20578;-49
2020/12/26 03:28:23;;;;;;;0.82;0.82;;;;;;;;;;5056442;28;20264;-49
2020/12/26 03:30:49;;;;;;;0.93;0.82;;;;;;;;;;5054412;28;20172;-49
2020/12/26 03:33:15;;;;;;;1.27;1.00;;;;;;;;;;5072739;28;20179;-49
2020/12/26 03:35:41;;;;;;;1.70;1.10;;;;;;;;;;5073186;28;20522;-49
2020/12/26 03:38:07;;;;;;;0.98;0.70;;;;;;;;;;5073019;28;20182;-49
2020/12/26 03:40:33;;;;;;;0.82;0.82;;;;;;;;;;5069379;28;20183;-48
2020/12/26 03:42:59;;;;;;;1.10;1.00;;;;;;;;;;5069920;28;20190;-48
2020/12/26 03:45:25;;;;;;;1.67;1.10;;;;;;;;;;5073438;28;20182;-49
2020/12/26 03:47:51;;;;;;;0.82;0.80;;;;;;;;;;5073868;28;20206;-49
2020/12/26 03:50:17;;;;;;;0.85;0.80;;;;;;;;;;5066676;28;20179;-49
2020/12/26 03:52:43;;;;;;;1.10;1.00;;;;;;;;;;5067133;28;20277;-49
2020/12/26 03:55:09;;;;;;;1.27;0.93;;;;;;;;;;5063037;28;20600;-49
2020/12/26 03:57:35;;;;;;;1.20;0.88;;;;;;;;;;5073664;28;20193;-49
2020/12/26 04:00:01;;;;;;;0.90;0.90;;;;;;;;;;5073977;28;20253;-48
2020/12/26 04:02:27;;;;;;;0.95;0.90;;;;;;;;;;5062185;28;20594;-49
2020/12/26 04:04:53;;;;;;;0.95;0.80;;;;;;;;;;5053310;28;20190;-49
2020/12/26 04:07:19;;;;;;;1.38;0.80;;;;;;;;;;5053746;28;20230;-49
2020/12/26 04:09:45;;;;;;;0.90;0.80;;;;;;;;;;5054341;28;20198;-49
2020/12/26 04:12:11;;;;;;;0.95;0.90;;;;;;;;;;5061539;28;20174;-49
2020/12/26 04:14:37;;;;;;;1.17;0.90;;;;;;;;;;5072392;28;20694;-49
2020/12/26 04:17:03;;;;;;;0.82;0.75;;;;;;;;;;5073788;28;20182;-49
2020/12/26 04:19:29;;;;;;;0.90;0.73;;;;;;;;;;5072115;28;20187;-49
2020/12/26 04:21:55;;;;;;;0.90;0.90;;;;;;;;;;5069900;28;20183;-49
2020/12/26 04:24:21;;;;;;;0.68;0.68;;;;;;;;;;5066566;28;20187;-48
2020/12/26 04:26:47;;;;;;;1.02;0.75;;;;;;;;;;5053495;28;20175;-49
2020/12/26 04:29:13;;;;;;;0.70;0.70;;;;;;;;;;5053476;28;20171;-48
2020/12/26 04:31:39;;;;;;;2.60;0.98;;;;;;;;;;5060547;28;20786;-49
2020/12/26 04:34:05;;;;;;;1.15;1.05;;;;;;;;;;5072349;28;20182;-49
2020/12/26 04:36:31;;;;;;;1.10;0.60;;;;;;;;;;5064030;28;20245;-48
2020/12/26 04:38:57;;;;;;;1.10;0.80;;;;;;;;;;5057506;28;20223;-49
2020/12/26 04:41:24;;;;;;;0.98;0.85;;;;;;;;;;5068250;28;20266;-49
2020/12/26 04:43:50;;;;;;;0.98;0.80;;;;;;;;;;5053433;28;20461;-48
2020/12/26 04:46:19;;;;;;;0.88;0.80;;;;;;;;;;5052969;28;20179;-48
2020/12/26 04:49:08;;;;;;;0.88;0.88;;;;;;;;;;5070128;28;20206;-49
2020/12/26 04:51:39;;;;;;;0.90;0.90;;;;;;;;;;5053225;28;20589;-49
2020/12/26 04:54:09;;;;;;;0.90;0.88;;;;;;;;;;5073136;28;20220;-49
2020/12/26 04:56:40;;;;;;;1.10;0.75;;;;;;;;;;5072958;28;20178;-49
2020/12/26 04:59:07;;;;;;;1.10;0.77;;;;;;;;;;5073221;28;20174;-49
2020/12/26 05:01:35;;;;;;;0.75;0.73;;;;;;;;;;5068537;28;20218;-49
2020/12/26 05:04:02;;;;;;;1.15;0.70;;;;;;;;;;5057814;28;20187;-49
2020/12/26 05:06:30;;;;;;;0.90;0.60;;;;;;;;;;5063147;28;20189;-49
2020/12/26 05:08:56;;;;;;;0.70;0.70;;;;;;;;;;5056907;28;20230;-49
2020/12/26 05:11:22;;;;;;;1.38;0.70;;;;;;;;;;5069256;28;20193;-49
2020/12/26 05:13:48;;;;;;;0.60;0.60;;;;;;;;;;5056955;28;20175;-49
2020/12/26 05:16:14;;;;;;;0.70;0.70;;;;;;;;;;5056479;28;20172;-49
2020/12/26 05:18:40;;;;;;;1.13;0.82;;;;;;;;;;5071888;28;20558;-49
2020/12/26 05:21:06;;;;;;;1.05;0.80;;;;;;;;;;5075291;28;20186;-49
2020/12/26 05:23:34;;;;;;;1.33;0.90;;;;;;;;;;5056166;28;20218;-49
2020/12/26 05:26:00;;;;;;;1.63;1.10;;;;;;;;;;5056141;28;20242;-48
2020/12/26 05:28:31;;;;;;;1.73;0.90;;;;;;;;;;5056191;28;20207;-49
2020/12/26 05:30:57;;;;;;;1.13;0.70;;;;;;;;;;5057782;28;20194;-49
2020/12/26 05:33:23;;;;;;;1.27;0.90;;;;;;;;;;5074979;28;20187;-49
2020/12/26 05:35:50;;;;;;;0.90;0.70;;;;;;;;;;5056359;28;20269;-49
2020/12/26 05:38:17;;;;;;;0.88;0.88;;;;;;;;;;5056429;28;20554;-49
2020/12/26 05:40:44;;;;;;;1.42;1.00;;;;;;;;;;5055941;28;20179;-49
2020/12/26 05:43:10;;;;;;;1.40;0.90;;;;;;;;;;5059038;28;20190;-49
2020/12/26 05:45:39;;;;;;;0.75;0.73;;;;;;;;;;5055521;28;20261;-49
2020/12/26 05:48:09;;;;;;;1.38;0.88;;;;;;;;;;5056465;28;20206;-48
2020/12/26 05:50:36;;;;;;;0.95;0.80;;;;;;;;;;5055717;28;20620;-49
2020/12/26 05:53:02;;;;;;;0.70;0.70;;;;;;;;;;5072607;28;20186;-48
2020/12/26 05:55:47;;;;;;;0.60;0.60;;;;;;;;;;5074301;28;20189;-49
2020/12/26 05:58:13;;;;;;;0.75;0.75;;;;;;;;;;5056165;28;20171;-48
2020/12/26 06:00:41;;;;;;;0.88;0.60;;;;;;;;;;5057433;28;20214;-49
2020/12/26 06:03:22;;;;;;;1.02;0.80;;;;;;;;;;5058907;28;20202;-49
2020/12/26 06:05:48;;;;;;;1.35;0.85;;;;;;;;;;5055300;28;20179;-49
2020/12/26 06:08:17;;;;;;;0.80;0.75;;;;;;;;;;5055975;28;20203;-49
2020/12/26 06:10:49;;;;;;;0.70;0.70;;;;;;;;;;5066244;28;20174;-49
2020/12/26 06:13:17;;;;;;;1.08;1.00;;;;;;;;;;5057966;28;20455;-48
2020/12/26 06:15:48;;;;;;;0.80;0.80;;;;;;;;;;5054879;28;20613;-49
2020/12/26 06:18:16;;;;;;;0.85;0.70;;;;;;;;;;5055697;28;20190;-48
2020/12/26 06:20:43;;;;;;;0.65;0.65;;;;;;;;;;5055529;28;20184;-48
2020/12/26 06:23:14;;;;;;;0.90;0.77;;;;;;;;;;5055831;28;20248;-49
2020/12/26 06:25:42;;;;;;;1.67;0.70;;;;;;;;;;5069339;28;20253;-49
2020/12/26 06:28:15;;;;;;;0.75;0.75;;;;;;;;;;5055744;28;20202;-48
2020/12/26 06:30:41;;;;;;;0.95;0.82;;;;;;;;;;5058901;28;20175;-49
2020/12/26 06:33:07;;;;;;;0.77;0.75;;;;;;;;;;5074969;28;20620;-49
2020/12/26 06:35:34;;;;;;;0.77;0.70;;;;;;;;;;5074321;28;20569;-49
2020/12/26 06:38:14;;;;;;;1.42;0.80;;;;;;;;;;5066342;28;20183;-49
2020/12/26 06:40:53;;;;;;;2.67;1.05;;;;;;;;;;5070298;28;20210;-49
2020/12/26 06:43:38;;;;;;;0.65;0.65;;;;;;;;;;5059248;28;20201;-48
2020/12/26 06:46:07;;;;;;;1.17;0.85;;;;;;;;;;5074921;28;20182;-49
2020/12/26 06:48:36;;;;;;;0.70;0.70;;;;;;;;;;5074653;28;20324;-49
2020/12/26 06:51:22;;;;;;;0.77;0.77;;;;;;;;;;5066359;28;20182;-48
2020/12/26 06:53:48;;;;;;;0.98;0.68;;;;;;;;;;5073722;28;20186;-48
2020/12/26 06:56:33;;;;;;;0.75;0.75;;;;;;;;;;5054570;28;20545;-48
2020/12/26 06:58:59;;;;;;;1.80;0.88;;;;;;;;;;5055221;28;20228;-48
2020/12/26 07:01:25;;;;;;;1.20;1.10;;;;;;;;;;5057813;28;20498;-49
2020/12/26 07:04:10;;;;;;;0.80;0.80;;;;;;;;;;5071594;28;20197;-49
2020/12/26 07:06:40;;;;;;;0.63;0.63;;;;;;;;;;5054540;28;20195;-49
2020/12/26 07:09:07;;;;;;;0.90;0.88;;;;;;;;;;5054416;28;20524;-49
2020/12/26 07:11:42;;;;;;;0.75;0.70;;;;;;;;;;5054694;28;20203;-49
2020/12/26 07:14:08;;;;;;;1.02;0.93;;;;;;;;;;5054260;28;20461;-49
2020/12/26 07:16:38;;;;;;;0.70;0.70;;;;;;;;;;5072171;28;20186;-49
2020/12/26 07:19:22;;;;;;;1.90;0.90;;;;;;;;;;5071455;28;20214;-49
2020/12/26 07:21:59;;;;;;;0.90;0.80;;;;;;;;;;5063106;28;20203;-49
2020/12/26 07:24:32;;;;;;;2.75;0.82;;;;;;;;;;5067080;28;20186;-47
2020/12/26 07:27:11;;;;;;;1.30;0.90;;;;;;;;;;5073372;28;20186;-49
2020/12/26 07:29:46;;;;;;;0.80;0.80;;;;;;;;;;5073885;28;20178;-49
2020/12/26 07:32:32;;;;;;;1.05;0.88;;;;;;;;;;5073630;28;20308;-49
2020/12/26 07:34:58;;;;;;;3.78;0.90;;;;;;;;;;5068354;28;20193;-49
2020/12/26 07:37:24;;;;;;;1.48;0.90;;;;;;;;;;5053676;28;20190;-49
2020/12/26 07:39:50;;;;;;;2.97;1.05;;;;;;;;;;5054476;28;20187;-48
2020/12/26 07:42:17;;;;;;;1.17;0.80;;;;;;;;;;5054129;28;20254;-48
2020/12/26 07:44:43;;;;;;;2.50;0.90;;;;;;;;;;5055365;28;20190;-47
2020/12/26 07:47:09;;;;;;;3.63;1.35;;;;;;;;;;5061432;28;20198;-49
2020/12/26 07:49:35;;;;;;;2.78;1.10;;;;;;;;;;5070314;28;20183;-48
2020/12/26 07:52:02;;;;;;;3.30;1.38;;;;;;;;;;5074019;28;20550;-48
2020/12/26 07:54:28;;;;;;;3.65;1.30;;;;;;;;;;5072222;28;20449;-48
2020/12/26 07:56:55;;;;;;;6.75;2.13;;;;;;;;;;5053994;28;20254;-48
2020/12/26 07:59:22;;;;;;;4.85;3.10;;;;;;;;;;5053969;28;20198;-49
2020/12/26 08:01:55;;;;;;;4.28;3.83;;;;;;;;;;5073459;28;20216;-49
2020/12/26 08:04:22;;;;;;;5.85;4.55;;;;;;;;;;5067626;28;20191;-49
2020/12/26 08:06:48;;;;;;;6.65;4.68;;;;;;;;;;5062599;28;20592;-48
2020/12/26 08:09:15;;;;;;;8.82;5.05;;;;;;;;;;5057547;28;20183;-48
2020/12/26 08:11:42;;;;;;;8.18;4.90;;;;;;;;;;5053577;28;20613;-48
2020/12/26 08:14:08;;;;;;;8.68;4.75;;;;;;;;;;5057646;28;20182;-48
2020/12/26 08:16:35;;;;;;;7.43;4.70;;;;;;;;;;5067531;28;20194;-49
2020/12/26 08:19:01;;;;;;;6.63;4.07;;;;;;;;;;5059650;28;20178;-49
2020/12/26 08:21:28;;;;;;;5.63;3.92;;;;;;;;;;5073453;28;20194;-49
2020/12/26 08:24:01;;;;;;;4.93;3.97;;;;;;;;;;5071904;28;20225;-49
2020/12/26 08:26:28;;;;;;;5.60;4.45;;;;;;;;;;5056061;28;20205;-48
2020/12/26 08:28:55;;;;;;;4.45;3.47;;;;;;;;;;5073425;28;20194;-47
2020/12/26 08:31:25;;;;;;;3.58;3.03;;;;;;;;;;5073304;28;20181;-49
2020/12/26 08:33:54;;;;;;;5.20;3.17;;;;;;;;;;5071900;28;20190;-49
2020/12/26 08:36:25;;;;;;;12.63;4.50;;;;;;;;;;5060635;28;20179;-49
2020/12/26 08:38:58;;;;;;;5.97;5.40;;;;;;;;;;5065876;28;20187;-49
2020/12/26 08:41:25;;;;;;;8.73;5.47;;;;;;;;;;5058479;28;20191;-49
2020/12/26 08:43:52;;;;;;;7.40;5.38;;;;;;;;;;5066101;28;20251;-49
2020/12/26 08:46:19;;;;;;;5.75;4.70;;;;;;;;;;5057031;28;20191;-48
2020/12/26 08:48:46;;;;;;;6.57;4.88;;;;;;;;;;5058063;28;20199;-48
2020/12/26 08:51:22;;;;;;;5.95;5.10;;;;;;;;;;5063676;28;20170;-46
2020/12/26 08:53:49;;;;;;;9.05;4.57;;;;;;;;;;5057294;28;20199;-48
2020/12/26 08:56:15;;;;;;;6.25;4.78;;;;;;;;;;5056570;28;20521;-46
2020/12/26 08:58:49;;;;;;;7.43;4.20;;;;;;;;;;5056867;28;20210;-47
2020/12/26 09:01:15;;;;;;;9.60;4.25;;;;;;;;;;5064896;28;20217;-46
2020/12/26 09:03:47;;;;;;;7.53;3.85;;;;;;;;;;5065395;28;20205;-47
2020/12/26 09:06:13;;;;;;;5.10;3.72;;;;;;;;;;5075302;28;20186;-46
2020/12/26 09:08:38;;;;;;;6.78;3.70;;;;;;;;;;5076563;28;20470;-47
2020/12/26 09:11:05;;;;;;;8.00;3.67;;;;;;;;;;5076841;28;20219;-50
2020/12/26 09:13:32;;;;;;;6.80;3.65;;;;;;;;;;5071569;28;20454;-49
2020/12/26 09:16:01;;;;;;;7.28;3.38;;;;;;;;;;5071884;28;20175;-49
2020/12/26 09:18:28;;;;;;;8.32;3.40;;;;;;;;;;5061431;28;20183;-50
2020/12/26 09:20:58;;;;;;;6.60;3.22;;;;;;;;;;5058161;28;20175;-50
2020/12/26 09:23:25;;;;;;;4.75;2.97;;;;;;;;;;5055552;28;20596;-51
2020/12/26 09:25:51;;;;;;;5.20;2.75;;;;;;;;;;5056133;28;20482;-49
2020/12/26 09:28:18;;;;;;;7.35;2.88;;;;;;;;;;5056558;28;20248;-49
2020/12/26 09:30:45;;;;;;;5.30;3.17;;;;;;;;;;5058419;28;20186;-50
2020/12/26 09:33:11;;;;;;;8.07;3.22;;;;;;;;;;5076425;28;20187;-49
2020/12/26 09:35:37;;;;;;;7.45;2.85;;;;;;;;;;5075758;28;20492;-49
2020/12/26 09:38:04;;;;;;;4.63;2.80;;;;;;;;;;5074779;28;20214;-49
2020/12/26 09:40:31;;;;;;;7.45;3.15;;;;;;;;;;5059831;28;20261;-49
2020/12/26 09:42:57;;;;;;;6.38;3.22;;;;;;;;;;5056504;28;20237;-49
2020/12/26 09:45:23;;;;;;;6.97;2.95;;;;;;;;;;5055581;28;20210;-49
2020/12/26 09:47:49;;;;;;;4.80;2.47;;;;;;;;;;5060966;28;20298;-50
2020/12/26 09:50:15;;;;;;;5.70;2.63;;;;;;;;;;5067175;28;20201;-49
2020/12/26 09:52:42;;;;;;;5.88;1.92;;;;;;;;;;5075715;28;20201;-51
2020/12/26 09:55:09;;;;;;;3.47;2.13;;;;;;;;;;5059240;28;20171;-49
2020/12/26 09:57:35;;;;;;;4.38;2.30;;;;;;;;;;5075754;28;20499;-49
2020/12/26 10:00:01;;;;;;;5.63;2.50;;;;;;;;;;5076051;28;20221;-49
2020/12/26 10:02:26;;;;;;;3.72;2.33;;;;;;;;;;5075602;28;20471;-49
2020/12/26 10:04:52;;;;;;;6.25;2.45;;;;;;;;;;5059450;28;20266;-48
2020/12/26 10:07:19;;;;;;;5.47;2.22;;;;;;;;;;5055543;28;20206;-49
2020/12/26 10:09:45;;;;;;;2.95;1.90;;;;;;;;;;5056687;28;20270;-49
2020/12/26 10:12:11;;;;;;;3.42;2.00;;;;;;;;;;5073280;28;20187;-49
2020/12/26 10:14:38;;;;;;;4.00;1.77;;;;;;;;;;5074844;28;20186;-50
2020/12/26 10:17:04;;;;;;;2.63;2.15;;;;;;;;;;5067902;28;20178;-48
2020/12/26 10:19:30;;;;;;;4.18;2.05;;;;;;;;;;5056916;28;20220;-50
2020/12/26 10:21:56;;;;;;;5.53;2.22;;;;;;;;;;5067092;28;20195;-49
2020/12/26 10:24:22;;;;;;;1.95;1.67;;;;;;;;;;5057104;28;20175;-49
2020/12/26 10:26:48;;;;;;;5.18;2.25;;;;;;;;;;5067650;28;20185;-50
2020/12/26 10:29:13;;;;;;;3.35;1.88;;;;;;;;;;5075470;28;20202;-50
2020/12/26 10:31:39;;;;;;;2.55;1.77;;;;;;;;;;5074406;28;20189;-49
2020/12/26 10:34:05;;;;;;;3.17;1.90;;;;;;;;;;5057380;28;20587;-49
2020/12/26 10:36:31;;;;;;;3.85;1.60;;;;;;;;;;5054647;28;20241;-49
2020/12/26 10:38:57;;;;;;;2.85;1.60;;;;;;;;;;5055345;28;20179;-49
2020/12/26 10:41:23;;;;;;;3.03;1.88;;;;;;;;;;5055927;28;20210;-49
2020/12/26 10:43:49;;;;;;;2.13;1.42;;;;;;;;;;5057360;28;20643;-49
2020/12/26 10:46:15;;;;;;;5.20;2.05;;;;;;;;;;5068835;28;20194;-49
2020/12/26 10:48:41;;;;;;;2.63;1.58;;;;;;;;;;5073230;28;20210;-49
2020/12/26 10:51:10;;;;;;;1.58;1.48;;;;;;;;;;5074942;28;20210;-51
2020/12/26 10:53:36;;;;;;;3.67;1.80;;;;;;;;;;5066218;28;20629;-51
2020/12/26 10:56:02;;;;;;;2.65;1.77;;;;;;;;;;5055971;28;20187;-51
2020/12/26 10:58:28;;;;;;;3.00;1.60;;;;;;;;;;5058681;28;20543;-50
2020/12/26 11:00:54;;;;;;;2.05;1.52;;;;;;;;;;5073120;28;20194;-50
2020/12/26 11:03:20;;;;;;;2.55;1.90;;;;;;;;;;5074887;28;20202;-50
2020/12/26 11:05:48;;;;;;;3.22;1.75;;;;;;;;;;5073991;28;20178;-49
2020/12/26 11:08:14;;;;;;;2.97;1.30;;;;;;;;;;5063207;28;20237;-49
2020/12/26 11:10:39;;;;;;;2.60;1.55;;;;;;;;;;5069326;28;20210;-50
2020/12/26 11:13:05;;;;;;;2.15;1.48;;;;;;;;;;5060462;28;20190;-49
2020/12/26 11:15:31;;;;;;;1.98;1.42;;;;;;;;;;5060668;28;20205;-49
2020/12/26 11:17:57;;;;;;;3.08;2.05;;;;;;;;;;5061255;28;20570;-49
2020/12/26 11:20:23;;;;;;;7.75;3.40;;;;;;;;;;5072817;28;20209;-50
2020/12/26 11:22:49;;;;;;;7.47;4.30;;;;;;;;;;5074742;28;20179;-49
2020/12/26 11:25:15;;;;;;;7.55;3.58;;;;;;;;;;5071641;28;20814;-49
2020/12/26 11:27:41;;;;;;;6.20;3.60;;;;;;;;;;5054167;28;20474;-49
2020/12/26 11:30:07;;;;;;;7.80;3.88;;;;;;;;;;5055541;28;20185;-50
2020/12/26 11:32:33;;;;;;;6.07;3.15;;;;;;;;;;5068586;28;20198;-50
2020/12/26 11:34:59;;;;;;;7.75;3.42;;;;;;;;;;5073771;28;20170;-49
2020/12/26 11:37:25;;;;;;;7.07;3.25;;;;;;;;;;5066895;28;20609;-50
2020/12/26 11:39:51;;;;;;;5.25;3.05;;;;;;;;;;5063409;28;20293;-49
2020/12/26 11:42:17;;;;;;;5.05;2.85;;;;;;;;;;5054768;28;20262;-49
2020/12/26 11:44:43;;;;;;;7.93;3.25;;;;;;;;;;5053367;28;20247;-49
2020/12/26 11:47:09;;;;;;;4.43;3.35;;;;;;;;;;5059291;28;20190;-49
2020/12/26 11:49:35;;;;;;;6.15;3.40;;;;;;;;;;5071912;28;20206;-50
2020/12/26 11:52:01;;;;;;;6.05;3.00;;;;;;;;;;5074345;28;20564;-50
2020/12/26 11:54:27;;;;;;;6.00;3.20;;;;;;;;;;5053268;28;20505;-50
2020/12/26 11:56:54;;;;;;;6.05;2.72;;;;;;;;;;5054164;28;20171;-49
2020/12/26 11:59:21;;;;;;;7.90;2.92;;;;;;;;;;5060438;28;20480;-50
2020/12/26 12:01:47;;;;;;;6.70;2.92;;;;;;;;;;5070976;28;20206;-49
2020/12/26 12:04:13;;;;;;;5.05;2.97;;;;;;;;;;5054701;28;20183;-49
2020/12/26 12:06:39;;;;;;;4.43;2.75;;;;;;;;;;5054220;28;20505;-49
2020/12/26 12:09:05;;;;;;;4.57;2.83;;;;;;;;;;5054318;28;20210;-49
2020/12/26 12:11:31;;;;;;;4.15;2.75;;;;;;;;;;5061343;28;20179;-49
2020/12/26 12:13:57;;;;;;;5.78;2.97;;;;;;;;;;5060486;28;20186;-49
2020/12/26 12:16:23;;;;;;;7.45;2.58;;;;;;;;;;5062807;28;20262;-49
2020/12/26 12:18:49;;;;;;;4.60;2.30;;;;;;;;;;5062428;28;20195;-49
2020/12/26 12:21:15;;;;;;;4.60;2.65;;;;;;;;;;5085110;28;20182;-50
2020/12/26 12:23:41;;;;;;;6.38;2.47;;;;;;;;;;5070735;28;20469;-49
2020/12/26 12:26:07;;;;;;;6.18;2.30;;;;;;;;;;5080075;28;20288;-49
2020/12/26 12:28:33;;;;;;;7.10;2.40;;;;;;;;;;5079891;28;20216;-50
2020/12/26 12:30:59;;;;;;;6.18;2.55;;;;;;;;;;5080496;28;20602;-49
2020/12/26 12:33:25;;;;;;;9.50;2.40;;;;;;;;;;5064310;28;20167;-50
2020/12/26 12:35:51;;;;;;;6.88;2.75;;;;;;;;;;5060751;28;20246;-50
2020/12/26 12:38:17;;;;;;;4.55;2.50;;;;;;;;;;5060672;28;20241;-49
2020/12/26 12:40:43;;;;;;;4.40;2.20;;;;;;;;;;5059925;28;20181;-49
2020/12/26 12:43:09;;;;;;;3.50;2.28;;;;;;;;;;5060357;28;20175;-50
2020/12/26 12:45:35;;;;;;;4.43;2.45;;;;;;;;;;5062447;28;20183;-50
2020/12/26 12:48:01;;;;;;;4.05;2.10;;;;;;;;;;5060434;28;20593;-50
2020/12/26 12:50:27;;;;;;;4.80;2.35;;;;;;;;;;5077929;28;20198;-50
2020/12/26 12:52:53;;;;;;;7.55;2.78;;;;;;;;;;5078627;28;20564;-49
2020/12/26 12:55:19;;;;;;;4.97;2.50;;;;;;;;;;5074256;28;20183;-50
2020/12/26 12:57:45;;;;;;;7.40;2.88;;;;;;;;;;5061414;28;20183;-49
2020/12/26 13:00:11;;;;;;;6.88;2.80;;;;;;;;;;5066756;28;20205;-50
2020/12/26 13:02:37;;;;;;;5.90;2.90;;;;;;;;;;5079700;28;20198;-50
2020/12/26 13:05:03;;;;;;;6.05;2.67;;;;;;;;;;5077001;28;20186;-49
2020/12/26 13:07:29;;;;;;;6.28;2.10;;;;;;;;;;5059504;28;20198;-50
2020/12/26 13:09:55;;;;;;;4.00;2.40;;;;;;;;;;5061187;28;20187;-50
2020/12/26 13:12:21;;;;;;;5.75;2.60;;;;;;;;;;5070054;28;20239;-50
2020/12/26 13:14:47;;;;;;;11.65;2.60;;;;;;;;;;5071380;28;20190;-50
2020/12/26 13:17:13;;;;;;;5.80;2.38;;;;;;;;;;5068263;28;20239;-49
2020/12/26 13:19:39;;;;;;;3.67;2.13;;;;;;;;;;5063504;28;20179;-49
2020/12/26 13:22:06;;;;;;;4.20;2.15;;;;;;;;;;5063310;28;20187;-52
2020/12/26 13:24:32;;;;;;;4.13;2.20;;;;;;;;;;5076036;28;20221;-50
2020/12/26 13:26:57;;;;;;;4.85;2.08;;;;;;;;;;5073213;28;20210;-50
2020/12/26 13:29:23;;;;;;;6.05;2.45;;;;;;;;;;5061782;28;20616;-50
2020/12/26 13:31:49;;;;;;;7.82;2.70;;;;;;;;;;5069240;28;20466;-49
2020/12/26 13:34:15;;;;;;;5.13;2.65;;;;;;;;;;5058939;28;20171;-50
2020/12/26 13:36:41;;;;;;;18.85;5.43;;;;;;;;;;5076184;28;20174;-50
2020/12/26 13:39:08;;;;;;;22.50;7.32;;;;;;;;;;5067975;28;20624;-50
2020/12/26 13:41:35;;;;;;;23.25;9.70;;;;;;;;;;5056130;28;20167;-50
2020/12/26 13:44:01;;;;;;;37.05;10.85;;;;;;;;;;5057103;28;20183;-50
2020/12/26 13:46:27;;;;;;;32.22;10.52;;;;;;;;;;5055669;28;20250;-50
2020/12/26 13:48:53;;;;;;;48.42;13.40;;;;;;;;;;5055749;28;20294;-50
2020/12/26 13:51:22;;;;;;;38.70;11.10;;;;;;;;;;5076088;28;20598;-51
2020/12/26 13:53:48;;;;;;;38.03;11.88;;;;;;;;;;5068209;28;20187;-50
2020/12/26 13:56:14;;;;;;;45.85;13.75;;;;;;;;;;5068491;28;20179;-50
2020/12/26 13:58:40;;;;;;;32.50;11.90;;;;;;;;;;5060355;28;20193;-50
2020/12/26 14:01:06;;;;;;;42.13;12.55;;;;;;;;;;5076182;28;20463;-50
2020/12/26 14:03:32;;;;;;;38.63;12.63;;;;;;;;;;5071051;28;20203;-50
2020/12/26 14:05:58;;;;;;;38.00;11.55;;;;;;;;;;5075216;28;20573;-49
2020/12/26 14:08:24;;;;;;;32.65;11.25;;;;;;;;;;5068751;28;20209;-50
2020/12/26 14:10:50;;;;;;;45.63;12.48;;;;;;;;;;5058545;28;20745;-50
2020/12/26 14:13:16;;;;;;;34.65;10.80;;;;;;;;;;5060634;28;20187;-51
2020/12/26 14:15:42;;;;;;;40.20;11.15;;;;;;;;;;5054798;28;20673;-50
2020/12/26 14:18:08;;;;;;;27.02;10.50;;;;;;;;;;5055827;28;20612;-51
2020/12/26 14:20:34;;;;;;;37.63;11.10;;;;;;;;;;5055260;28;20214;-50
2020/12/26 14:23:04;;;;;;;25.63;9.27;;;;;;;;;;5056149;28;20638;-50
2020/12/26 14:25:30;;;;;;;27.98;9.40;;;;;;;;;;5072971;28;20216;-50
2020/12/26 14:27:56;;;;;;;30.02;9.18;;;;;;;;;;5068883;28;20597;-50
2020/12/26 14:30:22;;;;;;;27.55;9.63;;;;;;;;;;5056200;28;20179;-50
2020/12/26 14:32:48;;;;;;;23.80;9.27;;;;;;;;;;5055867;28;20179;-50
2020/12/26 14:35:14;;;;;;;22.65;8.60;;;;;;;;;;5056352;28;20557;-50
2020/12/26 14:37:40;;;;;;;30.73;9.43;;;;;;;;;;5055488;28;20208;-50
2020/12/26 14:40:06;;;;;;;27.52;8.82;;;;;;;;;;5056790;28;20477;-50